STAZIONE METEO DI BARCELLONA P.G. CENTRO
Dati campionati ogni minuto da Consolle Davis Vantage Pro 2
ed inviati alla rete mediante server Anemos WDS5 wview



Barcellona P.G. Centro more information Barcellona P.G. Centro


Golfo di Patti more information Golfo di Patti


Thunder radar more information blitzortung!


Rain radar  rain snow radar


altri nostri siti meteo:

Rischio IncendiRischio Incendi

Rete NOAA MADIS

Italia Meteo Network

PomeziameteoSito web di stazione meteo amica



Non è richiesta alcuna attenzione speciale.    Non sono presenti avvisi meteorologici di particolare rilevanza

Report METAR

   
LICF - Messina, Italy
Distanza dalla stazione: NE 30 km
Dati ricevuti: 25-09-2020 21:55
Parzialmente nuvoloso  
Parzialmente nuvoloso  
   Vento: NE 5.6 km/h
Vento: NE 5.6 km/h
Temperatura: 27°C
Indice di Calore: 27°C
P.to Rugiada: 15°C
Umidità: 48%
Barometro: 1006 hPa
Nuvole: Parzialmente nuvoloso
Visibilità: oltre 10 km
dettagli cloud: Parzialmente nuvoloso 1219.2 m
LICF 251955Z 04003KT 9999 SCT040 27/15 Q1006
LICR - Reggio Calabria, Italy
Distanza dalla stazione: SE 39 km
Dati ricevuti: 25-09-2020 20:50
DATI Obsoleti
Sereno  
Sereno  
   Vento: NE 11.1 km/h
Vento: NE 11.1 km/h
Temperatura: 27°C
Indice di Calore: 28°C
P.to Rugiada: 17°C
Umidità: 54%
Barometro: 1005 hPa
Visibilità: oltre 10 km
dettagli cloud: Sereno
LICR 251850Z 03006KT CAVOK 27/17 Q1005
LICC - Catania/Fontanar, Italy
Distanza dalla stazione: S 77 km
Dati ricevuti: 25-09-2020 21:50
Sereno  
Sereno  
   Vento: SW 14.8 km/h
Vento: SW 14.8 km/h
Temperatura: 26°C
P.to Rugiada: 16°C
Umidità: 54%
Barometro: 1006 hPa
Visibilità: oltre 10 km
dettagli cloud: Sereno
LICC 251950Z 23008KT CAVOK 26/16 Q1006
LICZ - Sigonella (nas), Italy
Distanza dalla stazione: S 89 km
Dati ricevuti: 25-09-2020 20:55
Parzialmente nuvoloso  
Parzialmente nuvoloso  
   Vento: W 20.4 km/h
Vento: W 20.4 km/h
Temperatura: 28°C
Indice di Calore: 29°C
P.to Rugiada: 19°C
Umidità: 58%
Barometro: 1006 hPa
Nuvole: Parzialmente nuvoloso
Visibilità: oltre 10 km
dettagli cloud: Parzialmente nuvoloso 3048 m
LICZ 251855Z 25011KT 9999 SCT100 28/19 Q1006 RMK SCT VIS MIN 9999 WIND THR28 26011KT WIND THR10 26011KT A2974 BLU
LICA - Lamezia Terme, Italy
Distanza dalla stazione: NE 122 km
Dati ricevuti: 25-09-2020 21:50
Nearby Thunderstorm, Molto nuvoloso  
Nearby Thunderstorm, Molto nuvoloso  
   Vento: West 40.7 km/h
Vento: West 40.7 km/h
Temperatura: 28°C
Indice di Calore: 28°C
P.to Rugiada: 17°C
Umidità: 51%
Barometro: 1004 hPa
Nuvole: Molto nuvoloso
Visibilità: 9 km
dettagli cloud: Molto nuvoloso 2499.4 m
LICA 251950Z AUTO 26022KT 9000 VCTS BKN082/// 28/17 Q1004
LICB - Comiso, Italy
Distanza dalla stazione: S 138 km
Dati ricevuti: 25-09-2020 21:50
Pioggia leggera, Molto nuvoloso  
Pioggia leggera, Molto nuvoloso  
   Vento: West 7.4 km/h
Vento: West 7.4 km/h
Temperatura: 24°C
P.to Rugiada: 21°C
Umidità: 83%
Barometro: 1009 hPa
Nuvole: Molto nuvoloso
Visibilità: oltre 10 km
dettagli cloud: Poche nuvole 1889.8 m,
Parzialmente nuvoloso 2895.6 m,
Molto nuvoloso 3657.6 m
LICB 251950Z AUTO 27004KT 240V330 9999 -RA FEW062/// SCT095/// BKN120/// 24/21 Q1009

Script sviluppato da  Saratoga-weather.org Adattato per il modello da  Weerstation Leuven

Potete trovare le nostre info meteo anche a:

European Weather Network

Weather Underground

AWEKAS

Citizen Weather Observer Program (CWOP)

HAMweather, WeatherForYou, PWS Weather

Attrezzature usate:

Stazione meteo
Davis VP2

Programma gestore dati meteo
WVIEW

Server per i dati meteo
WDS5 Ecoblack

Davis VP2

WVIEW

WDS5 Ecoblack